Time;durP1;ratioP1;P1;durP2;ratioP2;P2;SDS_P1;SDS_P2;PMS_P1;PMS_P2;Temp;Humidity;BMP_temperature;BMP_pressure;BME280_temperature;BME280_humidity;BME280_pressure;Samples;Min_cycle;Max_cycle;Signal;HPM_P1;HPM_P2
2022/05/25 00:00:13;;;;;;;41.10;37.10;;;;;;;15.96;100.00;98452.73;105193;1268;60056;-73
2022/05/25 00:03:00;;;;;;;43.00;39.00;;;;;;;15.94;100.00;98452.27;105245;1268;76730;-73
2022/05/25 00:05:27;;;;;;;44.70;40.60;;;;;;;15.90;100.00;98449.79;105257;1268;69006;-72
2022/05/25 00:07:53;;;;;;;44.40;40.20;;;;;;;15.88;100.00;98453.52;105225;1268;74408;-72
2022/05/25 00:10:20;;;;;;;43.80;39.80;;;;;;;15.87;100.00;98455.23;105238;1268;61275;-72
2022/05/25 00:12:46;;;;;;;43.40;38.90;;;;;;;15.86;100.00;98456.00;105064;1268;61266;-73
2022/05/25 00:15:13;;;;;;;42.80;38.80;;;;;;;15.86;100.00;98455.52;105206;1268;61408;-72
2022/05/25 00:17:39;;;;;;;42.00;38.20;;;;;;;15.85;100.00;98455.08;105230;1268;69299;-72
2022/05/25 00:20:07;;;;;;;40.00;36.20;;;;;;;15.85;100.00;98454.00;105177;1268;61373;-75
2022/05/25 00:22:42;;;;;;;42.80;38.90;;;;;;;15.84;100.00;98449.59;105348;1268;61376;-73
2022/05/25 00:25:17;;;;;;;42.90;39.00;;;;;;;15.83;100.00;98448.13;105239;1268;61272;-74
2022/05/25 00:27:43;;;;;;;41.40;37.40;;;;;;;15.81;100.00;98451.87;104977;1268;75542;-74
2022/05/25 00:30:12;;;;;;;40.30;36.50;;;;;;;15.80;100.00;98448.70;105248;1268;68964;-73
2022/05/25 00:32:40;;;;;;;41.30;37.40;;;;;;;15.80;100.00;98449.27;105397;1268;73386;-74
2022/05/25 00:35:12;;;;;;;40.30;36.70;;;;;;;15.76;100.00;98455.18;105260;1268;61262;-74
2022/05/25 00:37:41;;;;;;;42.50;38.70;;;;;;;15.75;100.00;98459.48;105318;1268;61167;-73
2022/05/25 00:40:12;;;;;;;42.50;38.70;;;;;;;15.74;100.00;98459.88;105258;1268;76366;-75
2022/05/25 00:42:38;;;;;;;;;;;;;;;15.74;100.00;98461.35;105250;1268;70636;-72
2022/05/25 00:45:06;;;;;;;41.00;37.10;;;;;;;15.72;100.00;98461.14;104986;1268;307568;-73
2022/05/25 00:47:37;;;;;;;43.00;39.00;;;;;;;15.72;100.00;98467.25;105251;1268;61197;-72
2022/05/25 00:50:05;;;;;;;42.90;38.90;;;;;;;15.74;100.00;98472.46;105382;1268;61512;-72
2022/05/25 00:52:32;;;;;;;44.80;40.70;;;;;;;15.75;100.00;98480.75;105243;1268;75413;-73
2022/05/25 00:55:03;;;;;;;44.50;40.30;;;;;;;15.75;100.00;98480.20;105249;1268;69180;-73
2022/05/25 00:57:36;;;;;;;43.90;39.90;;;;;;;15.76;100.00;98476.13;105060;1268;73623;-72
2022/05/25 01:00:13;;;;;;;47.80;43.00;;;;;;;15.80;100.00;98480.48;105296;1268;61399;-74
2022/05/25 01:02:48;;;;;;;51.60;46.50;;;;;;;15.84;100.00;98486.05;105228;1268;62840;-73
2022/05/25 01:05:19;;;;;;;51.30;46.50;;;;;;;15.86;100.00;98488.69;105205;1268;75169;-72
2022/05/25 01:07:49;;;;;;;53.50;48.30;;;;;;;15.87;100.00;98492.66;105293;1268;70419;-72
2022/05/25 01:10:37;;;;;;;55.20;49.80;;;;;;;15.87;100.00;98498.77;105201;1268;74408;-73
2022/05/25 01:13:17;;;;;;;60.10;54.30;;;;;;;15.85;100.00;98505.42;105201;1268;61477;-72
2022/05/25 01:16:02;;;;;;;;;;;;;;;15.82;100.00;98507.46;105248;1268;61363;-72
2022/05/25 01:18:34;;;;;;;60.40;54.60;;;;;;;15.78;100.00;98506.44;104981;1268;73625;-73
2022/05/25 01:21:06;;;;;;;67.40;61.10;;;;;;;15.74;100.00;98505.86;105212;1268;70278;-73
2022/05/25 01:24:04;;;;;;;66.10;59.70;;;;;;;15.74;100.00;98505.88;104978;1269;75078;-73
2022/05/25 01:26:52;;;;;;;68.60;62.00;;;;;;;15.74;100.00;98509.53;104996;1269;61432;-74
2022/05/25 01:29:22;;;;;;;67.00;60.50;;;;;;;15.73;100.00;98504.77;105231;1268;61294;-74
2022/05/25 01:32:01;;;;;;;65.60;59.30;;;;;;;15.74;100.00;98504.84;105263;1268;75262;-73
2022/05/25 01:34:46;;;;;;;61.30;55.50;;;;;;;15.74;100.00;98499.45;105235;1268;70533;-73
2022/05/25 01:37:20;;;;;;;60.20;54.70;;;;;;;15.74;100.00;98504.49;105232;1268;73373;-73
2022/05/25 01:39:55;;;;;;;58.10;52.10;;;;;;;15.73;100.00;98507.45;105181;1268;61284;-73
2022/05/25 01:42:36;;;;;;;58.10;52.60;;;;;;;15.72;100.00;98510.04;105208;1268;61370;-74
2022/05/25 01:45:08;;;;;;;58.50;53.00;;;;;;;15.71;100.00;98512.16;105237;1268;76311;-73
2022/05/25 01:47:39;;;;;;;61.40;55.60;;;;;;;15.69;100.00;98509.59;105398;1268;69487;-72
2022/05/25 01:50:16;;;;;;;59.60;54.00;;;;;;;15.70;100.00;98509.34;105243;1268;74190;-72
2022/05/25 01:52:51;;;;;;;61.00;55.20;;;;;;;15.70;100.00;98506.34;105350;1268;61526;-73
2022/05/25 01:55:25;;;;;;;60.30;54.60;;;;;;;15.71;100.00;98505.45;105416;1268;61391;-72
2022/05/25 01:57:58;;;;;;;59.50;53.60;;;;;;;15.74;100.00;98503.42;105227;1268;75883;-73
2022/05/25 02:00:49;;;;;;;57.70;52.30;;;;;;;15.75;100.00;98507.11;105402;1268;69227;-73
2022/05/25 02:06:04;;;;;;;55.70;50.40;;;;;;;15.73;100.00;98511.01;105057;1268;61362;-72
2022/05/25 02:09:09;;;;;;;56.10;50.90;;;;;;;15.71;100.00;98509.80;105213;1268;61307;-74
2022/05/25 02:11:44;;;;;;;57.40;51.80;;;;;;;15.68;100.00;98508.77;104927;1277;76261;-73
2022/05/25 02:14:34;;;;;;;57.00;51.60;;;;;;;15.66;100.00;98506.48;104623;1277;70378;-73
2022/05/25 02:17:15;;;;;;;56.00;50.70;;;;;;;15.64;100.00;98503.30;104801;1277;72254;-73
2022/05/25 02:19:55;;;;;;;57.90;52.30;;;;;;;15.63;100.00;98504.65;104779;1277;61519;-73
2022/05/25 02:22:44;;;;;;;56.50;51.10;;;;;;;15.62;100.00;98503.31;104801;1277;62041;-73
2022/05/25 02:25:32;;;;;;;55.90;50.40;;;;;;;15.61;100.00;98503.02;104910;1277;74325;-72
2022/05/25 02:28:06;;;;;;;56.50;51.20;;;;;;;15.57;100.00;98500.65;104810;1277;69264;-73
2022/05/25 02:30:37;;;;;;;56.70;51.30;;;;;;;15.54;100.00;98503.63;104839;1276;73368;-73
2022/05/25 02:33:14;;;;;;;55.00;49.80;;;;;;;15.53;100.00;98502.34;104848;1277;61443;-74
2022/05/25 02:35:44;;;;;;;57.00;51.50;;;;;;;15.52;100.00;98502.61;104816;1278;61398;-73
2022/05/25 02:38:11;;;;;;;;;;;;;;;15.50;100.00;98498.70;104825;1277;75326;-73
2022/05/25 02:40:40;;;;;;;54.30;49.20;;;;;;;15.47;100.00;98502.23;104787;1277;70464;-73
2022/05/25 02:43:08;;;;;;;59.20;53.50;;;;;;;15.44;100.00;98501.63;104897;1276;73519;-72
2022/05/25 02:45:36;;;;;;;57.30;52.00;;;;;;;15.44;100.00;98500.19;104419;1278;61359;-73
2022/05/25 02:48:04;;;;;;;57.50;51.80;;;;;;;15.46;100.00;98496.54;104893;1272;61347;-75
2022/05/25 02:50:31;;;;;;;60.60;54.70;;;;;;;15.50;100.00;98494.39;104952;1271;76210;-73
2022/05/25 02:52:57;;;;;;;58.50;52.90;;;;;;;15.53;100.00;98494.80;105245;1271;69655;-73
2022/05/25 02:55:24;;;;;;;57.70;52.20;;;;;;;15.56;100.00;98500.03;105209;1271;73611;-73
2022/05/25 02:57:50;;;;;;;56.10;50.60;;;;;;;15.57;100.00;98503.01;105190;1271;61377;-73
2022/05/25 03:00:17;;;;;;;56.10;50.90;;;;;;;15.58;100.00;98505.45;105220;1271;61396;-73
2022/05/25 03:02:44;;;;;;;57.10;51.70;;;;;;;15.57;100.00;98507.67;105051;1271;75273;-73
2022/05/25 03:05:12;;;;;;;56.40;50.90;;;;;;;15.57;100.00;98505.32;105187;1271;61374;-72
2022/05/25 03:07:39;;;;;;;58.10;52.20;;;;;;;15.59;100.00;98508.95;105188;1271;73321;-73
2022/05/25 03:10:06;;;;;;;54.80;49.60;;;;;;;15.60;100.00;98508.66;105255;1270;61323;-83
2022/05/25 03:12:33;;;;;;;54.30;48.90;;;;;;;15.58;100.00;98507.45;105574;1268;61584;-81
2022/05/25 03:14:59;;;;;;;63.40;57.00;;;;;;;15.56;100.00;98509.39;105301;1268;61290;-78
2022/05/25 03:17:26;;;;;;;66.00;59.20;;;;;;;15.56;100.00;98508.80;105313;1268;61274;-79
2022/05/25 03:19:55;;;;;;;61.20;54.90;;;;;;;15.58;100.00;98508.98;105439;1268;61255;-79
2022/05/25 03:22:23;;;;;;;58.70;53.20;;;;;;;15.62;100.00;98514.19;105525;1268;61219;-79
2022/05/25 03:24:50;;;;;;;58.20;52.70;;;;;;;15.65;100.00;98516.79;105555;1268;61225;-78
2022/05/25 03:27:17;;;;;;;58.70;53.20;;;;;;;15.69;100.00;98514.67;105334;1268;75185;-78
2022/05/25 03:29:44;;;;;;;56.50;51.30;;;;;;;15.73;100.00;98512.14;105323;1268;68831;-77
2022/05/25 03:32:11;;;;;;;55.80;50.30;;;;;;;15.74;100.00;98511.98;105366;1270;73292;-73
2022/05/25 03:34:38;;;;;;;55.10;49.80;;;;;;;15.77;100.00;98517.05;105320;1268;61506;-73
2022/05/25 03:37:05;;;;;;;55.30;50.00;;;;;;;15.79;100.00;98513.61;105356;1268;61294;-73
2022/05/25 03:39:32;;;;;;;53.90;48.70;;;;;;;15.81;100.00;98510.22;105356;1268;75442;-76
2022/05/25 03:42:07;;;;;;;53.80;48.70;;;;;;;15.85;100.00;98512.42;105667;1268;66536;-78
2022/05/25 03:44:35;;;;;;;51.90;47.20;;;;;;;15.86;100.00;98512.70;105910;1267;72279;-84
2022/05/25 03:47:01;;;;;;;50.30;45.60;;;;;;;15.87;100.00;98514.58;105903;1268;62006;-88
2022/05/25 03:49:28;;;;;;;49.50;45.00;;;;;;;15.88;100.00;98517.19;105635;1268;61266;-78
2022/05/25 03:51:55;;;;;;;50.90;46.00;;;;;;;15.87;100.00;98516.55;105581;1268;76331;-78
2022/05/25 03:54:21;;;;;;;50.40;45.70;;;;;;;15.86;100.00;98517.84;105516;1268;69210;-83
2022/05/25 03:56:48;;;;;;;50.10;45.50;;;;;;;15.85;100.00;98517.11;105883;1268;74683;-77
2022/05/25 03:59:15;;;;;;;50.40;45.70;;;;;;;15.83;100.00;98520.30;106185;1268;61198;-80
2022/05/25 04:01:42;;;;;;;49.60;45.10;;;;;;;15.82;100.00;98517.85;105335;1268;61323;-79
2022/05/25 04:04:08;;;;;;;48.80;44.40;;;;;;;15.81;100.00;98520.99;105356;1268;74255;-79
2022/05/25 04:06:35;;;;;;;49.50;44.80;;;;;;;15.82;100.00;98520.96;105336;1268;69176;-80
2022/05/25 04:09:02;;;;;;;50.20;45.60;;;;;;;15.81;100.00;98523.50;105295;1271;61246;-74
2022/05/25 04:11:29;;;;;;;52.00;47.00;;;;;;;15.81;100.00;98531.06;105442;1271;61304;-80
2022/05/25 04:13:55;;;;;;;50.60;45.80;;;;;;;15.81;100.00;98524.45;105316;1268;61375;-75
2022/05/25 04:16:22;;;;;;;51.60;46.70;;;;;;;15.82;100.00;98522.71;105330;1268;73640;-76
2022/05/25 04:18:48;;;;;;;50.00;45.30;;;;;;;15.84;100.00;98521.13;105311;1268;61301;-74
2022/05/25 04:21:15;;;;;;;47.40;42.80;;;;;;;15.86;100.00;98517.30;105335;1271;61689;-75
2022/05/25 04:23:41;;;;;;;45.60;41.20;;;;;;;15.89;100.00;98516.10;105318;1267;61157;-74
2022/05/25 04:26:08;;;;;;;45.00;40.80;;;;;;;15.95;100.00;98511.63;105328;1268;61301;-76
2022/05/25 04:28:35;;;;;;;43.60;39.40;;;;;;;16.01;100.00;98505.60;105325;1268;75152;-80
2022/05/25 04:31:01;;;;;;;44.00;39.90;;;;;;;16.09;100.00;98510.06;105582;1268;68817;-81
2022/05/25 04:33:29;;;;;;;43.30;39.10;;;;;;;16.17;100.00;98513.06;105301;1268;73348;-76
2022/05/25 04:35:56;;;;;;;44.70;40.50;;;;;;;16.23;100.00;98515.16;105306;1268;61336;-75
2022/05/25 04:38:23;;;;;;;47.30;42.80;;;;;;;16.30;100.00;98516.42;105282;1268;61361;-74
2022/05/25 04:40:50;;;;;;;44.80;40.60;;;;;;;16.37;100.00;98520.20;105213;1268;75353;-77
2022/05/25 04:43:20;;;;;;;44.50;40.20;;;;;;;16.43;100.00;98514.62;105227;1271;69226;-77
2022/05/25 04:45:48;;;;;;;43.20;39.30;;;;;;;16.49;100.00;98514.04;105325;1268;71818;-75
2022/05/25 04:48:16;;;;;;;41.90;38.00;;;;;;;16.53;100.00;98513.79;105379;1268;61170;-75
2022/05/25 04:50:45;;;;;;;41.60;37.60;;;;;;;16.60;100.00;98512.04;105264;1268;62200;-75
2022/05/25 04:53:14;;;;;;;40.40;36.30;;;;;;;16.64;100.00;98512.31;105381;1268;76134;-75
2022/05/25 04:58:36;;;;;;;37.30;33.80;;;;;;;16.66;100.00;98507.79;105231;1268;73910;-75
2022/05/25 05:01:04;;;;;;;39.50;35.50;;;;;;;16.73;100.00;98505.88;105291;1268;61252;-76
2022/05/25 05:03:32;;;;;;;37.50;33.90;;;;;;;16.80;100.00;98505.20;105272;1268;61274;-75
2022/05/25 05:05:59;;;;;;;35.80;32.40;;;;;;;16.83;100.00;98505.45;105387;1268;74174;-76
2022/05/25 05:08:25;;;;;;;35.90;32.30;;;;;;;16.85;100.00;98505.75;105248;1268;69316;-75
2022/05/25 05:10:53;;;;;;;35.30;32.00;;;;;;;16.88;100.00;98505.98;105234;1268;73114;-75
2022/05/25 05:13:20;;;;;;;35.90;32.40;;;;;;;16.94;100.00;98506.94;105214;1268;61358;-77
2022/05/25 05:15:53;;;;;;;34.70;31.60;;;;;;;16.97;100.00;98506.56;105262;1268;62460;-76
2022/05/25 05:18:21;;;;;;;35.80;32.40;;;;;;;17.01;100.00;98506.92;105239;1268;75308;-77
2022/05/25 05:20:47;;;;;;;35.40;32.20;;;;;;;17.03;100.00;98507.58;105350;1265;67413;-76
2022/05/25 05:23:14;;;;;;;35.50;32.40;;;;;;;17.05;100.00;98504.64;105073;1268;61292;-75
2022/05/25 05:25:40;;;;;;;37.10;33.70;;;;;;;17.10;100.00;98500.20;105259;1268;61324;-75
2022/05/25 05:28:35;;;;;;;38.80;35.20;;;;;;;17.16;100.00;98500.91;105268;1268;61195;-75
2022/05/25 05:31:03;;;;;;;37.40;34.10;;;;;;;17.21;100.00;98501.94;104816;1277;75271;-76
2022/05/25 05:33:31;;;;;;;37.30;33.80;;;;;;;17.24;100.00;98511.73;104783;1276;70272;-76
2022/05/25 05:36:00;;;;;;;36.90;33.50;;;;;;;17.24;100.00;98513.84;104887;1277;73277;-72
2022/05/25 05:38:27;;;;;;;38.00;34.50;;;;;;;17.23;100.00;98509.13;104799;1277;61432;-77
2022/05/25 05:40:54;;;;;;;38.20;34.50;;;;;;;17.23;100.00;98505.04;104802;1277;61391;-76
2022/05/25 05:43:24;;;;;;;37.00;33.40;;;;;;;17.23;100.00;98509.89;104831;1277;76179;-76
2022/05/25 05:45:53;;;;;;;37.50;34.10;;;;;;;17.21;100.00;98516.00;104816;1277;69423;-75
2022/05/25 05:48:24;;;;;;;36.00;32.70;;;;;;;17.18;100.00;98518.77;104866;1277;73470;-75
2022/05/25 05:50:56;;;;;;;32.00;29.00;;;;;;;17.16;100.00;98523.47;104798;1277;61410;-76
2022/05/25 05:53:24;;;;;;;30.10;27.30;;;;;;;17.14;100.00;98528.88;104926;1277;61761;-76
2022/05/25 05:55:51;;;;;;;28.40;25.60;;;;;;;17.12;100.00;98530.14;104799;1277;75984;-75
2022/05/25 05:58:18;;;;;;;25.60;23.20;;;;;;;17.09;100.00;98530.61;104823;1277;68665;-76
2022/05/25 06:00:44;;;;;;;26.80;24.10;;;;;;;17.06;100.00;98530.80;104480;1277;74368;-77
2022/05/25 06:03:12;;;;;;;25.00;22.70;;;;;;;17.04;100.00;98529.16;104776;1277;61295;-77
2022/05/25 06:05:39;;;;;;;26.80;24.20;;;;;;;17.03;100.00;98526.83;105061;1277;61487;-77
2022/05/25 06:08:13;;;;;;;25.50;23.00;;;;;;;17.03;100.00;98527.48;104990;1268;76203;-77
2022/05/25 06:10:42;;;;;;;26.20;23.70;;;;;;;17.04;100.00;98521.05;105284;1268;70367;-77
2022/05/25 06:13:09;;;;;;;25.30;23.10;;;;;;;17.08;100.00;98516.08;105233;1268;73378;-77
2022/05/25 06:21:09;;;;;;;25.30;23.00;;;;;;;17.35;100.00;98512.88;105227;1268;76830;-76
2022/05/25 06:23:36;;;;;;;26.40;23.80;;;;;;;17.41;100.00;98522.98;105281;1268;70210;-76
2022/05/25 06:26:02;;;;;;;25.60;23.20;;;;;;;17.41;100.00;98517.70;105220;1268;74071;-75
2022/05/25 06:28:29;;;;;;;26.00;23.50;;;;;;;17.42;100.00;98513.83;105225;1270;61288;-76
2022/05/25 06:30:55;;;;;;;25.00;22.70;;;;;;;17.44;100.00;98515.63;105223;1270;61229;-75
2022/05/25 06:33:22;;;;;;;25.50;23.20;;;;;;;17.46;100.00;98514.98;105223;1268;61293;-76
2022/05/25 06:35:49;;;;;;;25.80;23.40;;;;;;;17.48;100.00;98516.06;105223;1268;61298;-76
2022/05/25 06:38:16;;;;;;;26.00;23.30;;;;;;;17.49;100.00;98517.59;105357;1268;73626;-75
2022/05/25 06:40:43;;;;;;;28.20;25.20;;;;;;;17.45;100.00;98520.66;105264;1268;61274;-76
2022/05/25 06:43:09;;;;;;;27.40;24.70;;;;;;;17.40;100.00;98518.89;105178;1267;61316;-76
2022/05/25 06:45:36;;;;;;;27.20;24.50;;;;;;;17.36;100.00;98520.97;105201;1268;61358;-75
2022/05/25 06:48:04;;;;;;;25.20;22.80;;;;;;;17.28;100.00;98525.14;105186;1268;61272;-76
2022/05/25 06:50:30;;;;;;;27.90;25.40;;;;;;;17.19;100.00;98522.25;105233;1268;73668;-75
2022/05/25 06:52:57;;;;;;;25.80;23.30;;;;;;;17.16;100.00;98524.74;105242;1267;61288;-76
2022/05/25 06:55:24;;;;;;;28.30;25.30;;;;;;;17.14;100.00;98529.65;105262;1268;61243;-75
2022/05/25 06:57:50;;;;;;;26.80;24.30;;;;;;;17.11;100.00;98534.91;105241;1268;61256;-76
2022/05/25 07:00:17;;;;;;;27.60;24.90;;;;;;;17.06;100.00;98543.48;105241;1268;61354;-76
2022/05/25 07:02:43;;;;;;;27.00;24.70;;;;;;;17.00;100.00;98552.20;105201;1268;74427;-75
2022/05/25 07:05:10;;;;;;;26.10;23.70;;;;;;;16.93;100.00;98563.38;105201;1268;61407;-75
2022/05/25 07:07:38;;;;;;;27.20;24.60;;;;;;;16.81;100.00;98565.18;105197;1271;62040;-76
2022/05/25 07:10:05;;;;;;;26.80;24.20;;;;;;;16.71;100.00;98558.69;105238;1268;75137;-75
2022/05/25 07:12:32;;;;;;;23.70;21.50;;;;;;;16.64;100.00;98556.49;105226;1267;69126;-75
2022/05/25 07:14:59;;;;;;;24.40;22.00;;;;;;;16.59;100.00;98560.39;105208;1268;72468;-77
2022/05/25 07:17:25;;;;;;;25.90;23.30;;;;;;;16.56;100.00;98558.36;105222;1268;61285;-76
2022/05/25 07:19:52;;;;;;;25.40;22.90;;;;;;;16.56;100.00;98555.10;105256;1268;61262;-78
2022/05/25 07:22:18;;;;;;;25.80;23.40;;;;;;;16.59;100.00;98556.23;105217;1268;76251;-76
2022/05/25 07:24:45;;;;;;;27.20;24.70;;;;;;;16.59;100.00;98546.95;105205;1267;61400;-75
2022/05/25 07:27:12;;;;;;;25.40;23.10;;;;;;;16.59;100.00;98551.04;105240;1268;73699;-77
2022/05/25 07:29:40;;;;;;;28.40;25.70;;;;;;;16.60;100.00;98554.77;104999;1268;61393;-76
2022/05/25 07:32:11;;;;;;;27.70;25.10;;;;;;;16.57;100.00;98555.34;105077;1271;61195;-77
2022/05/25 07:34:45;;;;;;;28.90;26.20;;;;;;;16.56;100.00;98555.51;105385;1268;75270;-77
2022/05/25 07:37:15;;;;;;;29.20;26.20;;;;;;;16.59;100.00;98559.81;105260;1268;69479;-75
2022/05/25 07:39:58;;;;;;;28.90;26.10;;;;;;;16.63;100.00;98558.74;105243;1268;73218;-75
2022/05/25 07:42:26;;;;;;;27.00;24.40;;;;;;;16.65;100.00;98564.27;105052;1268;61356;-75
2022/05/25 07:44:56;;;;;;;27.50;25.00;;;;;;;16.60;100.00;98564.00;105466;1268;61152;-76
2022/05/25 07:47:23;;;;;;;24.60;22.50;;;;;;;16.58;100.00;98567.44;105312;1268;76423;-76
2022/05/25 07:49:49;;;;;;;28.40;25.80;;;;;;;16.58;100.00;98565.30;105254;1268;69468;-75
2022/05/25 07:52:16;;;;;;;26.00;23.30;;;;;;;16.62;100.00;98562.23;105257;1267;61362;-75
2022/05/25 07:54:43;;;;;;;26.00;23.30;;;;;;;16.68;100.00;98570.58;104931;1268;61397;-76
2022/05/25 07:57:10;;;;;;;26.50;24.00;;;;;;;16.74;100.00;98569.48;105415;1268;61279;-76
2022/05/25 07:59:38;;;;;;;24.30;22.00;;;;;;;16.81;100.00;98570.80;105252;1268;75158;-75
2022/05/25 08:07:46;;;;;;;27.30;24.90;;;;;;;17.00;100.00;98573.78;105166;1268;61729;-76
2022/05/25 08:10:16;;;;;;;22.90;20.70;;;;;;;17.07;100.00;98579.44;105240;1268;61191;-76
2022/05/25 08:12:44;;;;;;;;;;;;;;;17.09;100.00;98579.52;105332;1268;74223;-77
2022/05/25 08:15:13;;;;;;;24.00;21.80;;;;;;;17.09;100.00;98578.58;105240;1268;69157;-75
2022/05/25 08:17:40;;;;;;;26.00;23.40;;;;;;;17.15;100.00;98576.77;105209;1268;72555;-75
2022/05/25 08:20:08;;;;;;;23.60;21.40;;;;;;;17.21;100.00;98581.88;105248;1268;61255;-76
2022/05/25 08:22:37;;;;;;;25.20;22.80;;;;;;;17.26;100.00;98585.25;105461;1268;61951;-76
2022/05/25 08:25:05;;;;;;;23.80;21.60;;;;;;;17.30;100.00;98581.98;105057;1268;75401;-75
2022/05/25 08:27:33;;;;;;;21.60;19.50;;;;;;;17.31;100.00;98578.84;105426;1268;69155;-76
2022/05/25 08:29:59;;;;;;;22.90;20.80;;;;;;;17.30;100.00;98575.54;105266;1268;73235;-76
2022/05/25 08:32:26;;;;;;;21.70;19.70;;;;;;;17.35;100.00;98576.98;105237;1268;61393;-75
2022/05/25 08:34:53;;;;;;;22.60;20.30;;;;;;;17.41;100.00;98578.05;105247;1268;61335;-75
2022/05/25 08:37:20;;;;;;;21.20;19.40;;;;;;;17.48;100.00;98582.34;105224;1268;61483;-76
2022/05/25 08:39:47;;;;;;;21.60;19.70;;;;;;;17.51;100.00;98584.16;105096;1268;70352;-77
2022/05/25 08:42:18;;;;;;;23.30;21.30;;;;;;;17.54;100.00;98583.20;105223;1268;61394;-76
2022/05/25 08:44:47;;;;;;;22.30;20.30;;;;;;;17.62;100.00;98584.15;105250;1268;61358;-76
2022/05/25 08:47:13;;;;;;;24.30;22.30;;;;;;;17.66;100.00;98589.54;105296;1268;61236;-76
2022/05/25 08:49:43;;;;;;;25.20;23.00;;;;;;;17.62;100.00;98590.86;105247;1268;76000;-75
2022/05/25 08:52:34;;;;;;;23.20;21.20;;;;;;;17.59;100.00;98595.79;105261;1268;69546;-76
2022/05/25 08:55:04;;;;;;;22.40;20.40;;;;;;;17.59;100.00;98597.37;105284;1268;73103;-75
2022/05/25 08:57:32;;;;;;;;;;;;;;;17.57;100.00;98598.33;105322;1268;61345;-77
2022/05/25 09:00:05;;;;;;;22.50;20.50;;;;;;;17.52;100.00;98596.45;105277;1268;61878;-76
2022/05/25 09:02:45;;;;;;;21.40;19.60;;;;;;;17.47;100.00;98600.55;105318;1268;75700;-76
2022/05/25 09:05:28;;;;;;;23.00;21.20;;;;;;;17.41;100.00;98604.10;105253;1268;69528;-75
2022/05/25 09:08:07;;;;;;;21.20;19.50;;;;;;;17.35;100.00;98606.98;105217;1268;74394;-76
2022/05/25 09:10:41;;;;;;;21.50;19.60;;;;;;;17.27;100.00;98605.09;105234;1268;61298;-75
2022/05/25 09:13:18;;;;;;;17.80;16.30;;;;;;;17.27;100.00;98603.15;105261;1268;62056;-76
2022/05/25 09:18:39;;;;;;;17.50;16.10;;;;;;;17.44;100.00;98609.49;105224;1268;70274;-75
2022/05/25 09:21:06;;;;;;;17.00;15.40;;;;;;;17.47;100.00;98616.77;105016;1268;74101;-75
2022/05/25 09:23:35;;;;;;;15.00;13.80;;;;;;;17.43;100.00;98624.22;105247;1268;61273;-75
2022/05/25 09:26:01;;;;;;;17.70;16.30;;;;;;;17.38;100.00;98625.55;105455;1268;61372;-77
2022/05/25 09:28:34;;;;;;;18.00;16.40;;;;;;;17.34;100.00;98623.84;105243;1268;61313;-76
2022/05/25 09:31:03;;;;;;;18.20;16.30;;;;;;;17.33;100.00;98623.41;105316;1268;68541;-76
2022/05/25 09:33:31;;;;;;;15.20;13.90;;;;;;;17.30;100.00;98628.86;105222;1268;74117;-76
2022/05/25 09:36:03;;;;;;;8.00;7.30;;;;;;;17.01;100.00;98635.98;105064;1268;61325;-75
2022/05/25 09:38:32;;;;;;;5.90;5.30;;;;;;;16.50;100.00;98647.55;105236;1268;61199;-74
2022/05/25 09:41:05;;;;;;;6.30;5.50;;;;;;;15.97;100.00;98664.08;105010;1268;74658;-76
2022/05/25 09:43:33;;;;;;;5.30;4.80;;;;;;;15.50;100.00;98674.71;105204;1266;68900;-75
2022/05/25 09:46:08;;;;;;;7.80;5.30;;;;;;;15.13;100.00;98685.63;105195;1268;73566;-74
2022/05/25 09:48:49;;;;;;;5.90;5.10;;;;;;;14.77;100.00;98681.52;105197;1268;61371;-74
2022/05/25 09:51:34;;;;;;;5.90;5.00;;;;;;;14.52;100.00;98689.39;105499;1268;62043;-74
2022/05/25 09:54:13;;;;;;;5.90;5.30;;;;;;;14.37;100.00;98697.89;105435;1268;73531;-71
2022/05/25 09:56:49;;;;;;;6.50;5.10;;;;;;;14.22;100.00;98687.36;105252;1268;69394;-72
2022/05/25 09:59:29;;;;;;;10.50;5.80;;;;;;;14.09;100.00;98681.20;105245;1268;73193;-71
2022/05/25 10:01:56;;;;;;;6.40;5.70;;;;;;;13.99;100.00;98683.83;105180;1268;61339;-72
2022/05/25 10:04:51;;;;;;;6.70;6.20;;;;;;;13.92;100.00;98685.36;105236;1268;61338;-74
2022/05/25 10:07:37;;;;;;;7.30;6.60;;;;;;;13.82;100.00;98688.17;105216;1268;75144;-72
2022/05/25 10:10:10;;;;;;;7.70;7.00;;;;;;;13.78;100.00;98688.63;105331;1268;68192;-74
2022/05/25 10:12:42;;;;;;;9.30;8.40;;;;;;;13.76;100.00;98689.67;105244;1268;71625;-75
2022/05/25 10:15:14;;;;;;;9.40;8.60;;;;;;;13.78;100.00;98683.44;105251;1268;61301;-74
2022/05/25 10:17:49;;;;;;;8.90;8.10;;;;;;;13.80;100.00;98686.52;105232;1268;62055;-75
2022/05/25 10:20:27;;;;;;;8.50;7.70;;;;;;;13.85;100.00;98695.06;105274;1268;74703;-74
2022/05/25 10:23:24;;;;;;;9.00;8.20;;;;;;;13.84;100.00;98696.87;105251;1268;68851;-74
2022/05/25 10:26:11;;;;;;;7.50;6.80;;;;;;;13.88;100.00;98710.32;105245;1268;72503;-75
2022/05/25 10:28:52;;;;;;;7.50;5.80;;;;;;;13.99;100.00;98715.98;105206;1268;61354;-75
2022/05/25 10:37:07;;;;;;;7.20;6.50;;;;;;;14.06;100.00;98712.87;105205;1271;70228;-75
2022/05/25 10:39:45;;;;;;;6.80;6.20;;;;;;;14.07;100.00;98706.75;105194;1271;73290;-74
2022/05/25 10:42:23;;;;;;;9.80;6.50;;;;;;;14.10;100.00;98708.65;105318;1271;61399;-74
2022/05/25 10:45:11;;;;;;;8.80;5.90;;;;;;;14.17;100.00;98713.88;105279;1271;61374;-75
2022/05/25 10:47:57;;;;;;;9.50;6.40;;;;;;;14.19;100.00;98722.48;105273;1270;75100;-75
2022/05/25 10:50:30;;;;;;;9.30;6.90;;;;;;;14.18;100.00;98725.91;105314;1271;69247;-74
2022/05/25 10:53:18;;;;;;;11.40;8.80;;;;;;;14.08;100.00;98733.60;105326;1271;73491;-72
2022/05/25 10:55:58;;;;;;;8.70;7.50;;;;;;;13.98;100.00;98738.02;105321;1271;61305;-74
2022/05/25 10:58:56;;;;;;;8.90;7.60;;;;;;;13.89;100.00;98735.21;105313;1269;61365;-76
2022/05/25 11:02:04;;;;;;;7.50;6.00;;;;;;;13.86;100.00;98742.48;105245;1269;75380;-73
2022/05/25 11:04:52;;;;;;;6.60;6.00;;;;;;;13.75;100.00;98741.19;104914;1274;67678;-76
2022/05/25 11:07:41;;;;;;;8.50;6.10;;;;;;;13.77;100.00;98740.85;104792;1274;72192;-74
2022/05/25 11:10:36;;;;;;;7.30;6.60;;;;;;;13.89;100.00;98742.41;104831;1274;61394;-75
2022/05/25 11:13:31;;;;;;;6.00;5.50;;;;;;;13.89;100.00;98750.78;104881;1274;61227;-74
2022/05/25 11:16:36;;;;;;;5.80;4.60;;;;;;;13.82;100.00;98755.11;104851;1274;76255;-75
2022/05/25 11:19:27;;;;;;;5.20;4.60;;;;;;;13.73;100.00;98762.27;104407;1281;70327;-75
2022/05/25 11:22:12;;;;;;;7.40;5.30;;;;;;;13.60;100.00;98771.77;104085;1283;71389;-74
2022/05/25 11:24:47;;;;;;;12.00;5.80;;;;;;;13.45;100.00;98779.23;104351;1281;61484;-75
2022/05/25 11:27:33;;;;;;;6.00;5.40;;;;;;;13.38;100.00;98779.77;104398;1281;61465;-74
2022/05/25 11:30:22;;;;;;;7.90;5.60;;;;;;;13.37;100.00;98781.13;104358;1281;76366;-73
2022/05/25 11:33:07;;;;;;;9.90;6.20;;;;;;;13.41;100.00;98788.67;104416;1281;68693;-74
2022/05/25 11:35:42;;;;;;;6.50;5.90;;;;;;;13.41;100.00;98797.21;104395;1281;73760;-75
2022/05/25 11:38:29;;;;;;;7.30;6.60;;;;;;;13.40;100.00;98801.05;104390;1281;61587;-74
2022/05/25 11:41:20;;;;;;;8.80;8.00;;;;;;;13.45;100.00;98802.83;104603;1277;61481;-75
2022/05/25 11:43:52;;;;;;;9.80;7.80;;;;;;;13.50;100.00;98806.48;104808;1276;75745;-73
2022/05/25 11:46:43;;;;;;;9.20;8.30;;;;;;;13.57;100.00;98805.06;104830;1277;70324;-75
2022/05/25 11:49:55;;;;;;;11.30;10.20;;;;;;;13.63;100.00;98808.43;104817;1277;73664;-76
2022/05/25 11:52:43;;;;;;;11.30;10.30;;;;;;;13.66;100.00;98810.00;104372;1281;61386;-74